Time;durP1;ratioP1;P1;durP2;ratioP2;P2;SDS_P1;SDS_P2;PMS_P1;PMS_P2;Temp;Humidity;BMP_temperature;BMP_pressure;BME280_temperature;BME280_humidity;BME280_pressure;Samples;Min_cycle;Max_cycle;Signal;HPM_P1;HPM_P2
2023/01/21 00:00:56;;;;;;;8.52;2.63;;;;;;;0.49;100.00;101976.19;5113000;28;20055;-80
2023/01/21 00:03:23;;;;;;;11.27;3.08;;;;;;;0.49;100.00;101977.06;5097734;28;20400;-80
2023/01/21 00:05:50;;;;;;;7.93;2.67;;;;;;;0.67;100.00;101997.25;5111916;28;20079;-80
2023/01/21 00:08:17;;;;;;;10.07;2.90;;;;;;;0.85;100.00;102008.81;5110719;28;20059;-80
2023/01/21 00:10:43;;;;;;;9.68;2.20;;;;;;;0.97;100.00;102027.16;5112130;28;20052;-80
2023/01/21 00:13:10;;;;;;;6.63;2.10;;;;;;;0.92;100.00;102026.16;5111348;28;20055;-80
2023/01/21 00:15:37;;;;;;;6.05;1.88;;;;;;;0.62;100.00;101985.97;5111908;28;20043;-80
2023/01/21 00:18:04;;;;;;;5.85;2.35;;;;;;;0.71;100.00;101993.91;5105079;28;20055;-80
2023/01/21 00:20:31;;;;;;;7.57;2.78;;;;;;;0.78;100.00;102006.94;5097448;28;20067;-80
2023/01/21 00:22:57;;;;;;;9.15;2.22;;;;;;;0.99;100.00;102042.66;5112136;28;20404;-79
2023/01/21 00:25:24;;;;;;;7.20;2.10;;;;;;;0.55;100.00;101976.34;5112236;28;20051;-80
2023/01/21 00:27:51;;;;;;;6.13;1.90;;;;;;;0.80;100.00;102000.09;5108336;28;20043;-79
2023/01/21 00:30:18;;;;;;;10.27;2.92;;;;;;;1.06;100.00;102047.13;5098106;28;20063;-80
2023/01/21 00:32:45;;;;;;;8.88;2.58;;;;;;;0.92;100.00;102024.47;5111546;28;20113;-80
2023/01/21 00:35:12;;;;;;;8.38;2.35;;;;;;;0.71;100.00;101985.31;5112963;28;20062;-80
2023/01/21 00:37:38;;;;;;;6.93;2.20;;;;;;;0.91;100.00;102022.72;5098416;28;20047;-80
2023/01/21 00:40:06;;;;;;;10.60;3.40;;;;;;;0.84;100.00;101994.19;5111638;28;20085;-80
2023/01/21 00:42:32;;;;;;;8.43;2.58;;;;;;;0.90;100.00;101999.47;5107615;28;20054;-80
2023/01/21 00:44:59;;;;;;;9.88;2.90;;;;;;;0.97;100.00;102001.34;5102520;28;20109;-80
2023/01/21 00:47:26;;;;;;;9.07;2.53;;;;;;;0.94;100.00;102038.28;5110445;28;20043;-80
2023/01/21 00:49:53;;;;;;;12.18;3.00;;;;;;;0.95;100.00;102000.47;5107298;28;20602;-81
2023/01/21 00:52:20;;;;;;;11.48;2.45;;;;;;;1.08;100.00;102001.59;5101698;28;20044;-80
2023/01/21 00:54:47;;;;;;;7.10;1.98;;;;;;;1.30;100.00;102050.25;5097086;28;20044;-81
2023/01/21 00:57:13;;;;;;;11.30;3.15;;;;;;;1.00;100.00;101995.41;5105310;28;20063;-81
2023/01/21 00:59:40;;;;;;;13.70;2.60;;;;;;;0.96;100.00;101986.75;5107482;28;20039;-81
2023/01/21 01:02:08;;;;;;;10.05;2.13;;;;;;;1.14;100.00;102027.53;5113171;28;20063;-82
2023/01/21 01:04:35;;;;;;;9.68;2.53;;;;;;;1.33;100.00;102058.06;5111805;28;20062;-81
2023/01/21 01:07:02;;;;;;;13.00;2.92;;;;;;;0.80;100.00;101969.16;5110398;28;20378;-80
2023/01/21 01:09:29;;;;;;;12.00;2.45;;;;;;;1.25;100.00;102036.38;5112659;28;20044;-80
2023/01/21 01:11:56;;;;;;;12.05;2.63;;;;;;;1.06;100.00;102011.00;5112753;28;20047;-81
2023/01/21 01:14:23;;;;;;;7.95;2.30;;;;;;;1.14;100.00;102023.25;5111573;28;20051;-81
2023/01/21 01:16:49;;;;;;;7.47;2.15;;;;;;;1.00;100.00;101991.13;5108617;28;20044;-80
2023/01/21 01:19:16;;;;;;;5.38;1.90;;;;;;;0.90;100.00;101994.31;5103823;28;20370;-80
2023/01/21 01:21:44;;;;;;;6.72;2.35;;;;;;;1.18;100.00;102033.63;5111471;28;20071;-81
2023/01/21 01:24:11;;;;;;;8.45;2.30;;;;;;;1.06;100.00;102011.91;5100255;28;20047;-80
2023/01/21 01:26:37;;;;;;;5.38;2.00;;;;;;;0.88;100.00;101978.81;5110392;28;20040;-80
2023/01/21 01:29:11;;;;;;;6.15;2.40;;;;;;;0.80;100.00;101971.75;5110497;28;20035;-79
2023/01/21 01:31:38;;;;;;;8.40;1.90;;;;;;;1.01;100.00;101999.72;5112700;28;20126;-79
2023/01/21 01:34:05;;;;;;;8.75;2.25;;;;;;;0.77;100.00;101959.66;5106840;28;20052;-80
2023/01/21 01:36:32;;;;;;;9.23;2.55;;;;;;;0.92;100.00;101983.22;5100053;28;20133;-80
2023/01/21 01:38:59;;;;;;;6.70;1.83;;;;;;;1.35;100.00;102039.13;5110222;28;20040;-80
2023/01/21 01:41:28;;;;;;;7.75;1.95;;;;;;;1.42;100.00;102049.66;5115100;28;20127;-80
2023/01/21 01:44:01;;;;;;;6.80;1.80;;;;;;;1.39;100.00;102044.41;5116045;27;20051;-80
2023/01/21 01:46:33;;;;;;;8.80;2.33;;;;;;;0.94;100.00;101962.63;5097975;28;20039;-80
2023/01/21 01:49:15;;;;;;;7.65;2.15;;;;;;;1.49;100.00;102046.34;5115406;28;20499;-80
2023/01/21 01:51:57;;;;;;;3.67;1.83;;;;;;;1.31;100.00;102012.41;5114784;28;20052;-80
2023/01/21 01:54:31;;;;;;;8.98;2.53;;;;;;;1.56;100.00;102038.72;5106284;28;20055;-81
2023/01/21 01:57:01;;;;;;;8.80;2.10;;;;;;;1.29;100.00;101996.03;5108766;28;20067;-81
2023/01/21 01:59:30;;;;;;;9.18;2.45;;;;;;;1.47;100.00;102036.81;5108183;28;20047;-80
2023/01/21 02:02:06;;;;;;;7.13;2.42;;;;;;;1.24;100.00;101997.63;5114709;28;20055;-80
2023/01/21 02:04:51;;;;;;;9.43;2.58;;;;;;;1.42;100.00;102010.06;5115938;28;20051;-80
2023/01/21 02:07:21;;;;;;;11.73;2.35;;;;;;;1.65;100.00;102057.00;5106523;28;20500;-81
2023/01/21 02:09:48;;;;;;;13.07;3.58;;;;;;;1.33;100.00;101982.38;5114321;28;20047;-81
2023/01/21 02:12:16;;;;;;;10.30;2.30;;;;;;;1.49;100.00;102024.84;5114258;28;20404;-81
2023/01/21 02:14:45;;;;;;;6.45;2.10;;;;;;;1.09;100.00;101965.50;5107367;28;20508;-80
2023/01/21 02:17:27;;;;;;;6.82;1.92;;;;;;;1.78;100.00;102065.88;5111891;28;20043;-80
2023/01/21 02:20:13;;;;;;;9.90;2.40;;;;;;;1.74;100.00;102062.34;5114855;28;20468;-81
2023/01/21 02:23:05;;;;;;;8.60;2.75;;;;;;;1.67;100.00;102057.91;5115733;28;20071;-81
2023/01/21 02:25:47;;;;;;;9.55;2.42;;;;;;;1.77;100.00;102061.53;5114508;28;20048;-80
2023/01/21 02:28:38;;;;;;;5.75;2.38;;;;;;;1.87;100.00;102066.91;5108666;28;20047;-80
2023/01/21 02:31:24;;;;;;;8.95;2.35;;;;;;;1.55;100.00;102029.25;5114395;28;20473;-81
2023/01/21 02:34:09;;;;;;;5.38;1.95;;;;;;;1.75;100.00;102060.63;5103889;28;20052;-80
2023/01/21 02:36:53;;;;;;;10.57;2.45;;;;;;;1.68;100.00;102057.94;5105493;28;20043;-81
2023/01/21 02:39:41;;;;;;;7.50;2.80;;;;;;;1.80;100.00;102062.47;5110206;28;20051;-81
2023/01/21 02:42:22;;;;;;;7.47;2.00;;;;;;;1.76;100.00;102060.66;5100324;28;20048;-81
2023/01/21 02:45:12;;;;;;;13.40;2.42;;;;;;;1.83;100.00;102066.84;5108849;28;20043;-81
2023/01/21 02:47:39;;;;;;;10.38;2.78;;;;;;;1.86;100.00;102069.44;5107243;28;20043;-81
2023/01/21 02:50:19;;;;;;;10.75;2.95;;;;;;;1.45;100.00;102029.06;5099281;28;20460;-81
2023/01/21 02:52:57;;;;;;;9.88;3.47;;;;;;;1.81;100.00;102079.72;5114022;28;20388;-81
2023/01/21 02:55:35;;;;;;;8.90;2.72;;;;;;;1.68;100.00;102045.03;5105781;28;20090;-81
2023/01/21 02:58:10;;;;;;;10.18;2.65;;;;;;;1.71;100.00;102054.53;5094351;28;20056;-81
2023/01/21 03:01:06;;;;;;;8.50;2.40;;;;;;;1.81;100.00;102050.44;5093050;28;20371;-81
2023/01/21 03:03:44;;;;;;;7.45;2.22;;;;;;;1.66;100.00;102053.56;5108885;28;20070;-81
2023/01/21 03:06:26;;;;;;;6.78;2.35;;;;;;;1.77;100.00;102053.78;5106323;28;20477;-82
2023/01/21 03:09:01;;;;;;;10.90;2.53;;;;;;;1.45;100.00;102013.59;5099630;28;20051;-81
2023/01/21 03:11:28;;;;;;;5.38;2.00;;;;;;;1.46;100.00;102006.72;5113282;28;20063;-80
2023/01/21 03:16:56;;;;;;;9.73;2.92;;;;;;;1.67;100.00;102035.53;5112938;28;20063;-81
2023/01/21 03:19:34;;;;;;;10.65;2.65;;;;;;;1.73;100.00;102049.41;5114692;28;20051;-81
2023/01/21 03:22:06;;;;;;;11.60;2.28;;;;;;;1.37;100.00;101996.19;5111996;28;20056;-81
2023/01/21 03:24:33;;;;;;;11.43;3.10;;;;;;;1.56;100.00;102025.81;5092980;28;20067;-81
2023/01/21 03:27:04;;;;;;;10.40;2.60;;;;;;;1.29;100.00;101968.53;5108565;28;20054;-80
2023/01/21 03:29:33;;;;;;;7.95;2.40;;;;;;;1.77;100.00;102043.44;5113451;28;20044;-81
2023/01/21 03:32:05;;;;;;;13.43;5.15;;;;;;;1.36;100.00;101979.81;5114376;28;20052;-81
2023/01/21 03:34:37;;;;;;;12.18;2.70;;;;;;;1.79;100.00;102028.84;5114561;28;20051;-81
2023/01/21 03:37:12;;;;;;;7.60;2.53;;;;;;;1.50;100.00;102026.56;5109021;28;20044;-81
2023/01/21 03:39:54;;;;;;;7.78;2.20;;;;;;;1.81;100.00;102071.97;5114343;28;20682;-81
2023/01/21 03:42:21;;;;;;;8.57;2.60;;;;;;;1.50;100.00;102032.59;5113140;28;20186;-81
2023/01/21 03:44:48;;;;;;;11.40;3.03;;;;;;;1.54;100.00;102033.56;5112930;28;20101;-81
2023/01/21 03:47:32;;;;;;;5.25;1.95;;;;;;;1.88;100.00;102075.53;5106268;28;20420;-81
2023/01/21 03:50:05;;;;;;;10.93;2.85;;;;;;;1.88;100.00;102073.81;5092323;28;20493;-81
2023/01/21 03:52:32;;;;;;;7.93;2.20;;;;;;;1.47;100.00;102035.13;5092539;28;20725;-81
2023/01/21 03:54:59;;;;;;;9.52;2.95;;;;;;;1.30;100.00;102027.03;5110781;28;20071;-82
2023/01/21 03:57:26;;;;;;;7.60;3.00;;;;;;;1.69;100.00;102082.03;5103422;28;20051;-81
2023/01/21 03:59:53;;;;;;;15.73;3.63;;;;;;;1.43;100.00;102053.09;5108806;28;20052;-81
2023/01/21 04:02:20;;;;;;;8.50;2.85;;;;;;;1.26;100.00;102027.81;5113871;28;20044;-82
2023/01/21 04:04:46;;;;;;;9.13;2.65;;;;;;;1.52;100.00;102050.69;5113654;28;20055;-81
2023/01/21 04:07:16;;;;;;;11.68;2.47;;;;;;;1.47;100.00;102034.25;5110383;28;20054;-81
2023/01/21 04:09:43;;;;;;;11.18;2.72;;;;;;;1.14;100.00;101994.00;5098995;28;20044;-81
2023/01/21 04:12:10;;;;;;;14.02;2.72;;;;;;;1.46;100.00;102023.06;5113407;28;20040;-81
2023/01/21 04:14:37;;;;;;;9.70;2.67;;;;;;;1.32;100.00;102040.81;5113783;28;20101;-82
2023/01/21 04:17:04;;;;;;;9.30;2.80;;;;;;;1.39;100.00;102053.88;5110388;28;20051;-81
2023/01/21 04:19:30;;;;;;;8.77;2.40;;;;;;;1.53;100.00;102078.25;5113351;28;20533;-82
2023/01/21 04:21:57;;;;;;;10.63;2.90;;;;;;;1.64;100.00;102081.94;5112003;28;20118;-81
2023/01/21 04:24:24;;;;;;;7.70;3.08;;;;;;;1.14;100.00;102009.47;5112407;28;20400;-81
2023/01/21 04:26:51;;;;;;;8.50;2.80;;;;;;;1.18;100.00;102037.06;5109819;28;20101;-81
2023/01/21 04:29:19;;;;;;;12.35;2.75;;;;;;;1.49;100.00;102082.50;5112656;28;20130;-81
2023/01/21 04:31:46;;;;;;;9.80;2.42;;;;;;;1.04;100.00;102020.44;5113042;28;20062;-81
2023/01/21 04:34:15;;;;;;;8.88;2.83;;;;;;;1.08;100.00;102035.13;5111659;28;20096;-82
2023/01/21 04:36:42;;;;;;;13.20;2.80;;;;;;;1.12;100.00;102035.25;5111859;28;20048;-81
2023/01/21 04:39:10;;;;;;;11.43;2.97;;;;;;;1.13;100.00;102018.03;5104080;28;20052;-81
2023/01/21 04:41:36;;;;;;;8.30;2.25;;;;;;;1.14;100.00;102018.09;5106328;28;20047;-81
2023/01/21 04:44:03;;;;;;;8.43;2.45;;;;;;;1.30;100.00;102052.81;5112191;28;20059;-81
2023/01/21 04:46:30;;;;;;;10.18;3.03;;;;;;;1.14;100.00;102035.28;5109851;28;20044;-81
2023/01/21 04:48:57;;;;;;;9.93;3.08;;;;;;;1.19;100.00;102032.78;5100932;28;20511;-81
2023/01/21 04:51:23;;;;;;;7.22;2.67;;;;;;;1.47;100.00;102070.38;5113047;28;20470;-82
2023/01/21 04:53:50;;;;;;;9.70;2.83;;;;;;;1.03;100.00;102006.66;5111651;28;20055;-81
2023/01/21 04:56:17;;;;;;;7.10;2.45;;;;;;;1.03;100.00;102011.81;5110090;28;20051;-81
2023/01/21 04:58:44;;;;;;;11.00;2.83;;;;;;;1.25;100.00;102056.16;5110252;28;20055;-82
2023/01/21 05:01:10;;;;;;;8.25;2.90;;;;;;;1.34;100.00;102053.75;5112965;28;20401;-81
2023/01/21 05:03:37;;;;;;;9.77;2.80;;;;;;;1.33;100.00;102052.03;5111600;28;20047;-81
2023/01/21 05:06:04;;;;;;;10.70;3.33;;;;;;;1.60;100.00;102087.03;5103772;28;20766;-81
2023/01/21 05:08:30;;;;;;;8.23;2.20;;;;;;;1.34;100.00;102061.50;5106116;28;20051;-81
2023/01/21 05:10:57;;;;;;;6.50;2.20;;;;;;;1.21;100.00;102025.97;5111585;28;20465;-81
2023/01/21 05:13:24;;;;;;;8.30;2.65;;;;;;;1.21;100.00;102020.81;5114992;28;20051;-82
2023/01/21 05:15:51;;;;;;;8.85;3.17;;;;;;;1.28;100.00;102033.00;5115500;28;20047;-80
2023/01/21 05:18:18;;;;;;;9.23;2.67;;;;;;;1.54;100.00;102068.81;5107881;28;20131;-81
2023/01/21 05:20:45;;;;;;;8.73;2.60;;;;;;;1.25;100.00;102051.00;5112519;28;20070;-81
2023/01/21 05:23:11;;;;;;;8.27;2.40;;;;;;;1.19;100.00;102045.69;5117066;28;20047;-81
2023/01/21 05:25:38;;;;;;;11.30;4.13;;;;;;;1.23;100.00;102053.53;5115837;28;20500;-81
2023/01/21 05:28:05;;;;;;;9.35;2.80;;;;;;;1.28;100.00;102045.91;5114500;28;20051;-81
2023/01/21 05:30:31;;;;;;;10.07;2.60;;;;;;;1.22;100.00;102031.16;5105150;28;20043;-80
2023/01/21 05:32:58;;;;;;;13.68;2.80;;;;;;;1.46;100.00;102059.19;5102222;28;20480;-81
2023/01/21 05:35:25;;;;;;;8.52;2.60;;;;;;;1.64;100.00;102097.41;5115587;28;20051;-82
2023/01/21 05:37:51;;;;;;;14.73;4.50;;;;;;;1.62;100.00;102083.63;5109688;28;20048;-81
2023/01/21 05:40:18;;;;;;;10.10;2.70;;;;;;;1.33;100.00;102044.28;5106541;28;20044;-82
2023/01/21 05:42:46;;;;;;;9.57;2.78;;;;;;;1.55;100.00;102063.69;5111786;28;20044;-81
2023/01/21 05:45:13;;;;;;;10.55;2.80;;;;;;;1.27;100.00;102050.16;5115695;28;20047;-83
2023/01/21 05:47:40;;;;;;;10.95;2.58;;;;;;;1.44;100.00;102058.28;5114248;28;20051;-80
2023/01/21 05:50:08;;;;;;;8.52;2.70;;;;;;;1.62;100.00;102098.25;5112990;27;20366;-82
2023/01/21 05:52:35;;;;;;;7.70;2.38;;;;;;;1.34;100.00;102048.59;5107540;28;20047;-81
2023/01/21 05:55:02;;;;;;;12.07;2.85;;;;;;;1.40;100.00;102060.75;5113621;28;20183;-81
2023/01/21 05:57:30;;;;;;;9.52;2.83;;;;;;;1.58;100.00;102112.78;5105474;28;20055;-81
2023/01/21 05:59:57;;;;;;;10.15;3.72;;;;;;;1.48;100.00;102105.69;5111097;28;20473;-81
2023/01/21 06:02:24;;;;;;;7.40;2.78;;;;;;;1.18;100.00;102036.22;5111155;28;20416;-81
2023/01/21 06:04:51;;;;;;;8.38;2.97;;;;;;;1.24;100.00;102070.78;5114916;28;20545;-81
2023/01/21 06:07:18;;;;;;;10.90;3.00;;;;;;;1.27;100.00;102068.22;5107004;28;20469;-82
2023/01/21 06:09:45;;;;;;;7.18;2.72;;;;;;;1.13;100.00;102059.31;5111515;28;20054;-81
2023/01/21 06:12:12;;;;;;;8.88;3.20;;;;;;;1.27;100.00;102080.28;5114654;28;20055;-81
2023/01/21 06:14:38;;;;;;;10.43;3.28;;;;;;;1.16;100.00;102056.81;5115171;28;20374;-81
2023/01/21 06:17:05;;;;;;;9.57;2.67;;;;;;;0.85;100.00;102013.97;5094685;28;20051;-81
2023/01/21 06:19:32;;;;;;;14.02;2.92;;;;;;;1.29;100.00;102065.69;5106675;28;20046;-82
2023/01/21 06:21:58;;;;;;;7.90;2.95;;;;;;;1.39;100.00;102069.34;5102732;28;20044;-81
2023/01/21 06:24:25;;;;;;;9.68;2.83;;;;;;;1.29;100.00;102073.44;5115232;28;20052;-81
2023/01/21 06:26:52;;;;;;;6.90;3.03;;;;;;;1.24;100.00;102068.19;5110228;28;20058;-81
2023/01/21 06:29:19;;;;;;;12.40;3.10;;;;;;;1.47;100.00;102091.91;5113793;28;20047;-81
2023/01/21 06:31:45;;;;;;;11.73;3.25;;;;;;;1.28;100.00;102080.31;5111696;28;20059;-81
2023/01/21 06:34:12;;;;;;;9.35;3.17;;;;;;;1.44;100.00;102119.38;5113604;28;20051;-81
2023/01/21 06:36:41;;;;;;;8.88;2.90;;;;;;;1.42;100.00;102088.38;5107542;28;20047;-81
2023/01/21 06:39:11;;;;;;;10.02;3.13;;;;;;;1.48;100.00;102121.19;5113928;28;20120;-82
2023/01/21 06:41:37;;;;;;;7.75;3.10;;;;;;;1.38;100.00;102089.16;5115360;28;20499;-82
2023/01/21 06:44:04;;;;;;;11.40;3.17;;;;;;;1.11;100.00;102040.34;5105803;28;20047;-81
2023/01/21 06:46:31;;;;;;;8.48;2.88;;;;;;;1.24;100.00;102090.50;5112008;28;20052;-81
2023/01/21 06:48:58;;;;;;;9.43;2.85;;;;;;;1.02;100.00;102043.59;5103702;28;20044;-82
2023/01/21 06:51:25;;;;;;;10.45;3.10;;;;;;;1.23;100.00;102081.06;5111917;28;20052;-82
2023/01/21 06:53:52;;;;;;;8.88;3.33;;;;;;;1.11;100.00;102050.69;5115269;28;20481;-82
2023/01/21 06:56:19;;;;;;;11.93;3.78;;;;;;;1.01;100.00;102065.09;5114703;28;20047;-81
2023/01/21 06:58:46;;;;;;;8.27;2.60;;;;;;;1.11;100.00;102069.59;5113861;28;20051;-82
2023/01/21 07:01:13;;;;;;;7.57;2.88;;;;;;;1.37;100.00;102073.63;5114696;28;20392;-81
2023/01/21 07:03:40;;;;;;;12.50;3.67;;;;;;;1.10;100.00;102044.66;5113296;28;20058;-81
2023/01/21 07:06:07;;;;;;;8.88;3.20;;;;;;;1.39;100.00;102100.34;5114898;28;20043;-81
2023/01/21 07:08:33;;;;;;;8.85;3.47;;;;;;;1.63;100.00;102124.09;5103446;28;20266;-81
2023/01/21 07:11:01;;;;;;;13.52;3.50;;;;;;;1.32;100.00;102107.06;5113598;28;20397;-81
2023/01/21 07:13:27;;;;;;;9.88;4.18;;;;;;;1.35;100.00;102090.75;5112528;28;20052;-81
2023/01/21 07:16:01;;;;;;;12.35;3.05;;;;;;;1.59;100.00;102137.75;5113604;28;20523;-82
2023/01/21 07:18:29;;;;;;;8.95;3.35;;;;;;;1.07;100.00;102057.47;5111236;28;20430;-81
2023/01/21 07:20:56;;;;;;;10.70;3.03;;;;;;;1.30;100.00;102095.84;5100656;28;20052;-81
2023/01/21 07:23:23;;;;;;;15.02;3.05;;;;;;;1.20;100.00;102053.47;5113361;28;20043;-81
2023/01/21 07:25:50;;;;;;;8.43;2.75;;;;;;;1.22;100.00;102050.91;5113471;28;20047;-81
2023/01/21 07:28:17;;;;;;;9.32;2.58;;;;;;;1.25;100.00;102077.66;5109408;28;20396;-81
2023/01/21 07:30:44;;;;;;;9.15;2.90;;;;;;;1.31;100.00;102054.59;5114631;28;20071;-81
2023/01/21 07:33:10;;;;;;;9.65;2.72;;;;;;;1.80;100.00;102136.50;5113425;28;20370;-82
2023/01/21 07:35:37;;;;;;;8.05;2.40;;;;;;;1.28;100.00;102054.50;5113344;28;20047;-80
2023/01/21 07:38:04;;;;;;;10.05;2.60;;;;;;;1.83;100.00;102126.22;5104520;28;20511;-81
2023/01/21 07:40:31;;;;;;;9.75;3.05;;;;;;;1.61;100.00;102087.06;5114436;28;20488;-81
2023/01/21 07:42:57;;;;;;;7.80;2.58;;;;;;;1.46;100.00;102063.50;5106916;28;20047;-80
2023/01/21 07:45:24;;;;;;;7.75;2.72;;;;;;;1.35;100.00;102075.28;5105939;28;20051;-81
2023/01/21 07:47:51;;;;;;;11.65;3.17;;;;;;;1.34;100.00;102074.41;5103859;28;20044;-80
2023/01/21 07:50:18;;;;;;;9.25;2.65;;;;;;;1.53;100.00;102080.84;5112810;28;20052;-82
2023/01/21 07:52:45;;;;;;;6.68;2.40;;;;;;;1.59;100.00;102077.53;5109478;28;20044;-82
2023/01/21 07:55:11;;;;;;;9.32;2.60;;;;;;;2.05;100.00;102148.19;5114586;28;20047;-82
2023/01/21 07:57:38;;;;;;;11.93;2.97;;;;;;;1.68;100.00;102090.63;5113257;28;20495;-83
2023/01/21 08:00:05;;;;;;;11.25;2.75;;;;;;;1.82;100.00;102112.41;5113257;28;20469;-82
2023/01/21 08:02:32;;;;;;;7.88;2.83;;;;;;;1.66;100.00;102100.03;5113304;28;20039;-81
2023/01/21 08:04:59;;;;;;;8.90;2.60;;;;;;;1.97;100.00;102145.47;5114039;28;20043;-81
2023/01/21 08:07:26;;;;;;;7.30;2.38;;;;;;;1.75;100.00;102100.22;5111053;28;20044;-81
2023/01/21 08:09:53;;;;;;;15.05;3.47;;;;;;;1.82;100.00;102114.16;5114460;28;20048;-81
2023/01/21 08:12:19;;;;;;;6.70;2.40;;;;;;;1.86;100.00;102108.19;5112942;28;20047;-82
2023/01/21 08:14:46;;;;;;;8.45;2.67;;;;;;;1.62;100.00;102087.91;5113255;28;20443;-82
2023/01/21 08:17:13;;;;;;;9.15;2.90;;;;;;;1.75;100.00;102113.13;5111614;28;20070;-81
2023/01/21 08:19:40;;;;;;;7.10;2.30;;;;;;;1.62;100.00;102077.59;5113671;28;20066;-83
2023/01/21 08:22:06;;;;;;;12.52;3.42;;;;;;;1.94;100.00;102126.44;5113101;28;20047;-82
2023/01/21 08:24:33;;;;;;;7.65;2.70;;;;;;;1.87;100.00;102109.94;5112447;28;20484;-82
2023/01/21 08:27:00;;;;;;;7.38;2.40;;;;;;;1.97;100.00;102113.59;5111573;28;20054;-82
2023/01/21 08:29:27;;;;;;;12.52;3.92;;;;;;;1.78;100.00;102077.06;5113509;28;20051;-82
2023/01/21 08:31:53;;;;;;;13.20;4.03;;;;;;;1.60;100.00;102079.28;5111117;28;20047;-81
2023/01/21 08:34:20;;;;;;;13.35;2.88;;;;;;;1.97;100.00;102113.59;5100526;28;20047;-81
2023/01/21 08:36:47;;;;;;;7.05;2.65;;;;;;;1.98;100.00;102118.78;5104005;28;20408;-82
2023/01/21 08:39:15;;;;;;;8.70;2.38;;;;;;;1.78;100.00;102096.84;5104791;28;20047;-81
2023/01/21 08:41:43;;;;;;;7.45;2.80;;;;;;;2.21;100.00;102170.94;5111368;28;20044;-81
2023/01/21 08:44:10;;;;;;;10.45;3.08;;;;;;;1.78;100.00;102099.44;5113126;28;20043;-82
2023/01/21 08:46:37;;;;;;;13.98;4.28;;;;;;;1.97;100.00;102129.09;5106303;28;20048;-82
2023/01/21 08:49:04;;;;;;;13.18;2.72;;;;;;;2.07;100.00;102124.16;5114369;28;20051;-81
2023/01/21 08:51:31;;;;;;;10.95;2.75;;;;;;;1.95;100.00;102113.56;5108766;28;20043;-82
2023/01/21 08:53:58;;;;;;;10.75;2.97;;;;;;;1.87;100.00;102104.78;5111204;28;20077;-82
2023/01/21 08:56:24;;;;;;;10.68;2.97;;;;;;;2.02;100.00;102118.00;5109517;28;20043;-81
2023/01/21 08:58:55;;;;;;;7.38;2.72;;;;;;;2.40;100.00;102174.72;5110946;28;20048;-82
2023/01/21 09:01:24;;;;;;;10.70;3.40;;;;;;;2.07;100.00;102146.50;5112913;28;20054;-81
2023/01/21 09:03:55;;;;;;;10.93;2.60;;;;;;;2.41;100.00;102189.41;5112368;28;20134;-82
2023/01/21 09:06:23;;;;;;;9.00;2.33;;;;;;;2.30;100.00;102152.13;5110092;28;20405;-82
2023/01/21 09:08:52;;;;;;;13.30;4.20;;;;;;;2.16;100.00;102148.41;5096694;28;20053;-81
2023/01/21 09:11:19;;;;;;;13.07;3.25;;;;;;;2.02;100.00;102102.50;5104951;28;20058;-82
2023/01/21 09:13:45;;;;;;;10.77;2.40;;;;;;;2.38;100.00;102154.88;5111920;28;20085;-82
2023/01/21 09:16:16;;;;;;;13.43;3.45;;;;;;;2.70;100.00;102175.28;5109830;28;20056;-82
2023/01/21 09:18:43;;;;;;;8.93;2.88;;;;;;;2.47;100.00;102127.47;5096050;28;20050;-83
2023/01/21 09:21:10;;;;;;;12.80;2.83;;;;;;;2.62;100.00;102157.91;5111528;28;20408;-82
2023/01/21 09:23:38;;;;;;;14.10;2.58;;;;;;;2.77;100.00;102179.72;5111647;28;20075;-83
2023/01/21 09:26:15;;;;;;;8.27;2.60;;;;;;;2.89;100.00;102187.69;5105523;28;20052;-82
2023/01/21 09:28:45;;;;;;;12.32;2.88;;;;;;;2.82;100.00;102194.47;5098636;28;21146;-83
2023/01/21 09:31:14;;;;;;;10.15;2.70;;;;;;;2.59;100.00;102154.41;5112738;28;20043;-83
2023/01/21 09:33:44;;;;;;;10.98;2.58;;;;;;;2.45;100.00;102126.56;5101274;28;20048;-83
2023/01/21 09:36:14;;;;;;;8.65;2.63;;;;;;;3.00;100.00;102196.50;5108050;28;20048;-82
2023/01/21 09:38:42;;;;;;;10.80;2.13;;;;;;;2.94;100.00;102208.47;5110869;28;20056;-83
2023/01/21 09:41:24;;;;;;;9.20;3.42;;;;;;;2.99;100.00;102191.31;5105271;28;20484;-83
2023/01/21 09:44:05;;;;;;;13.23;2.95;;;;;;;2.73;100.00;102172.75;5103397;28;20062;-82
2023/01/21 09:47:08;;;;;;;8.32;2.75;;;;;;;3.25;100.00;102215.03;5101547;28;20039;-83
2023/01/21 09:49:48;;;;;;;13.48;2.42;;;;;;;2.69;100.00;102124.38;5108310;28;20048;-83
2023/01/21 09:52:43;;;;;;;7.22;2.80;;;;;;;3.19;100.00;102209.78;5111122;28;20050;-82
2023/01/21 09:55:30;;;;;;;7.72;2.47;;;;;;;3.32;100.00;102201.34;5109520;28;20048;-84
2023/01/21 09:58:08;;;;;;;12.15;2.67;;;;;;;3.21;100.00;102210.66;5097234;28;20040;-84
2023/01/21 10:00:39;;;;;;;10.57;2.55;;;;;;;3.43;100.00;102211.88;5115258;28;20075;-84
2023/01/21 10:03:37;;;;;;;9.18;2.40;;;;;;;3.44;100.00;102208.44;5116087;28;20458;-84
2023/01/21 10:06:13;;;;;;;12.70;3.25;;;;;;;3.25;100.00;102196.91;5114075;28;20060;-83
2023/01/21 10:09:08;;;;;;;9.52;2.92;;;;;;;2.89;100.00;102163.56;5111717;28;20043;-83
2023/01/21 10:11:54;;;;;;;10.60;2.70;;;;;;;3.21;100.00;102213.25;5102217;28;20417;-85
2023/01/21 10:14:42;;;;;;;12.48;2.92;;;;;;;3.32;100.00;102209.09;5102601;28;20044;-82
2023/01/21 10:17:26;;;;;;;6.53;2.30;;;;;;;3.32;100.00;102209.09;5114202;28;20047;-84
2023/01/21 10:20:18;;;;;;;11.23;3.35;;;;;;;3.28;100.00;102186.63;5116326;28;20505;-83
2023/01/21 10:22:53;;;;;;;6.38;2.50;;;;;;;3.16;100.00;102161.41;5098106;28;20044;-85
2023/01/21 10:25:30;;;;;;;7.82;2.60;;;;;;;3.31;100.00;102216.84;5110978;28;20055;-84
2023/01/21 10:28:03;;;;;;;7.95;2.42;;;;;;;3.27;100.00;102210.75;5107963;28;20477;-85
2023/01/21 10:30:56;;;;;;;9.15;2.70;;;;;;;3.34;100.00;102222.94;5116037;28;20048;-84
2023/01/21 10:33:25;;;;;;;8.30;2.63;;;;;;;3.34;100.00;102225.53;5110360;28;20044;-84
2023/01/21 10:36:17;;;;;;;10.63;2.65;;;;;;;3.43;100.00;102224.81;5114957;28;20047;-84
2023/01/21 10:39:06;;;;;;;10.30;2.40;;;;;;;3.54;100.00;102224.97;5107044;28;20374;-83
2023/01/21 10:41:58;;;;;;;8.90;2.50;;;;;;;3.47;100.00;102229.22;5105002;28;20054;-84
2023/01/21 10:44:55;;;;;;;7.10;2.33;;;;;;;3.46;100.00;102229.19;5100514;28;20154;-82
2023/01/21 10:47:47;;;;;;;11.65;2.67;;;;;;;3.37;100.00;102224.72;5109315;28;20046;-84
2023/01/21 10:50:29;;;;;;;8.52;2.40;;;;;;;3.71;100.00;102220.06;5104984;28;20067;-83
2023/01/21 10:53:00;;;;;;;8.13;2.00;;;;;;;3.42;100.00;102179.94;5113928;28;20054;-83
2023/01/21 10:55:45;;;;;;;10.00;3.38;;;;;;;3.63;100.00;102225.16;5114132;28;20143;-83
2023/01/21 10:58:37;;;;;;;6.05;2.00;;;;;;;3.74;100.00;102220.13;5106650;28;20044;-83
2023/01/21 11:01:13;;;;;;;9.13;2.20;;;;;;;3.39;100.00;102166.94;5115537;28;20051;-85
2023/01/21 11:03:46;;;;;;;11.10;2.88;;;;;;;3.55;100.00;102225.00;5104574;28;20074;-84
2023/01/21 11:06:16;;;;;;;9.27;2.35;;;;;;;3.30;100.00;102145.22;5105288;28;20056;-84
2023/01/21 11:08:47;;;;;;;10.60;3.67;;;;;;;3.69;100.00;102217.44;5104981;28;20048;-84
2023/01/21 11:11:25;;;;;;;6.72;2.38;;;;;;;3.65;100.00;102171.63;5104864;28;20070;-84
2023/01/21 11:13:53;;;;;;;9.90;2.67;;;;;;;3.90;100.00;102203.06;5106795;28;20043;-84
2023/01/21 11:16:38;;;;;;;10.82;2.47;;;;;;;4.11;100.00;102212.84;5112050;28;20077;-84
2023/01/21 11:19:06;;;;;;;7.93;2.70;;;;;;;4.13;100.00;102203.38;5109611;28;20047;-83
2023/01/21 11:21:32;;;;;;;8.23;1.98;;;;;;;4.01;100.00;102192.84;5105783;28;20097;-83
2023/01/21 11:24:17;;;;;;;8.80;2.50;;;;;;;3.61;100.00;102133.56;5112646;28;20043;-84
2023/01/21 11:26:50;;;;;;;4.57;1.90;;;;;;;4.19;100.00;102208.59;5112699;28;20055;-84
2023/01/21 11:29:19;;;;;;;6.97;2.30;;;;;;;4.17;100.00;102208.59;5096807;28;20052;-84
2023/01/21 11:32:14;;;;;;;8.25;2.17;;;;;;;4.22;100.00;102197.41;5106094;28;20044;-83
2023/01/21 11:34:47;;;;;;;7.30;2.22;;;;;;;4.10;100.00;102148.88;5110997;28;20062;-83
2023/01/21 11:37:28;;;;;;;11.80;2.80;;;;;;;4.18;100.00;102144.66;5105357;28;20054;-84
2023/01/21 11:39:57;;;;;;;11.98;2.50;;;;;;;4.46;100.00;102197.72;5100792;28;20054;-83
2023/01/21 11:42:24;;;;;;;11.50;3.08;;;;;;;4.38;100.00;102169.06;5110703;28;20055;-83